Time;durP1;ratioP1;P1;durP2;ratioP2;P2;SDS_P1;SDS_P2;PMS_P1;PMS_P2;Temp;Humidity;BMP_temperature;BMP_pressure;BME280_temperature;BME280_humidity;BME280_pressure;Samples;Min_cycle;Max_cycle;Signal;HPM_P1;HPM_P2
2024/03/03 00:01:48;;;;;;;;;;;;;;;;;;5098091;28;20310;-81
2024/03/03 00:04:15;;;;;;;;;;;;;;;;;;5109264;28;19932;-77
2024/03/03 00:06:42;;;;;;;;;;;;;;;;;;5105518;28;20462;-79
2024/03/03 00:09:09;;;;;;;;;;;;;;;;;;5096204;28;20027;-79
2024/03/03 00:11:36;;;;;;;;;;;;;;;;;;5108427;28;19977;-79
2024/03/03 00:14:03;;;;;;;;;;;;;;;;;;5103058;28;19963;-80
2024/03/03 00:16:31;;;;;;;;;;;;;;;;;;5113291;28;19927;-80
2024/03/03 00:18:58;;;;;;;;;;;;;;;;;;5109792;28;19938;-78
2024/03/03 00:21:25;;;;;;;;;;;;;;;;;;5111739;28;20007;-85
2024/03/03 00:23:52;;;;;;;;;;;;;;;;;;5115296;28;19963;-84
2024/03/03 00:26:19;;;;;;;;;;;;;;;;;;5121135;28;19928;-84
2024/03/03 00:28:46;;;;;;;;;;;;;;;;;;5110243;28;20662;-85
2024/03/03 00:31:16;;;;;;;;;;;;;;;;;;5113281;28;19969;-85
2024/03/03 00:33:43;;;;;;;;;;;;;;;;;;5104332;28;19938;-83
2024/03/03 00:36:10;;;;;;;;;;;;;;;;;;5112614;28;20391;-83
2024/03/03 00:38:37;;;;;;;;;;;;;;;;;;5107456;28;19974;-83
2024/03/03 00:41:04;;;;;;;;;;;;;;;;;;5111934;28;19994;-83
2024/03/03 00:43:31;;;;;;;;;;;;;;;;;;5100298;28;19930;-84
2024/03/03 00:45:58;;;;;;;;;;;;;;;;;;5106414;28;19966;-83
2024/03/03 00:48:25;;;;;;;;;;;;;;;;;;5112092;28;19987;-81
2024/03/03 00:50:52;;;;;;;;;;;;;;;;;;5106685;28;20030;-81
2024/03/03 00:53:20;;;;;;;;;;;;;;;;;;5109850;28;20003;-81
2024/03/03 00:55:48;;;;;;;;;;;;;;;;;;5113773;28;20027;-81
2024/03/03 00:58:15;;;;;;;;;;;;;;;;;;5111087;28;19985;-80
2024/03/03 01:00:42;;;;;;;;;;;;;;;;;;5099947;28;19948;-81
2024/03/03 01:03:09;;;;;;;;;;;;;;;;;;5100586;28;19974;-80
2024/03/03 01:05:36;;;;;;;;;;;;;;;;;;5108149;28;20010;-81
2024/03/03 01:08:03;;;;;;;;;;;;;;;;;;5105937;28;20447;-82
2024/03/03 01:10:30;;;;;;;;;;;;;;;;;;5105736;28;20423;-81
2024/03/03 01:12:57;;;;;;;;;;;;;;;;;;5109951;28;19934;-79
2024/03/03 01:15:24;;;;;;;;;;;;;;;;;;5097343;28;19931;-81
2024/03/03 01:17:51;;;;;;;;;;;;;;;;;;5114321;28;19959;-81
2024/03/03 01:20:18;;;;;;;;;;;;;;;;;;5108602;28;20050;-81
2024/03/03 01:22:45;;;;;;;;;;;;;;;;;;5113382;28;19931;-80
2024/03/03 01:25:12;;;;;;;;;;;;;;;;;;5113750;28;20015;-81
2024/03/03 01:27:39;;;;;;;;;;;;;;;;;;5111642;28;19970;-81
2024/03/03 01:30:06;;;;;;;;;;;;;;;;;;5114387;28;20018;-81
2024/03/03 01:32:33;;;;;;;;;;;;;;;;;;5107114;28;20314;-81
2024/03/03 01:35:00;;;;;;;;;;;;;;;;;;5108315;28;19969;-81
2024/03/03 01:37:27;;;;;;;;;;;;;;;;;;5111422;28;20042;-80
2024/03/03 01:39:55;;;;;;;;;;;;;;;;;;5105787;28;20034;-81
2024/03/03 01:42:22;;;;;;;;;;;;;;;;;;5108736;28;20022;-81
2024/03/03 01:44:49;;;;;;;;;;;;;;;;;;5111573;28;20016;-82
2024/03/03 01:47:16;;;;;;;;;;;;;;;;;;5111938;28;20030;-82
2024/03/03 01:49:43;;;;;;;;;;;;;;;;;;5112988;28;19973;-82
2024/03/03 01:52:10;;;;;;;;;;;;;;;;;;5112993;28;20446;-83
2024/03/03 01:54:37;;;;;;;;;;;;;;;;;;5109301;28;20006;-83
2024/03/03 01:57:09;;;;;;;;;;;;;;;;;;5110142;28;20540;-83
2024/03/03 01:59:36;;;;;;;;;;;;;;;;;;5110130;28;19932;-83
2024/03/03 02:02:03;;;;;;;;;;;;;;;;;;5113567;28;20360;-84
2024/03/03 02:04:30;;;;;;;;;;;;;;;;;;5109818;28;19960;-84
2024/03/03 02:06:57;;;;;;;;;;;;;;;;;;5103450;28;19978;-86
2024/03/03 02:09:24;;;;;;;;;;;;;;;;;;5111675;28;19963;-85
2024/03/03 02:11:51;;;;;;;;;;;;;;;;;;5110322;28;19963;-85
2024/03/03 02:14:18;;;;;;;;;;;;;;;;;;5101314;28;19963;-84
2024/03/03 02:16:45;;;;;;;;;;;;;;;;;;5105605;28;20022;-83
2024/03/03 02:19:12;;;;;;;;;;;;;;;;;;5106819;28;19963;-84
2024/03/03 02:21:40;;;;;;;;;;;;;;;;;;5112667;28;20019;-85
2024/03/03 02:24:07;;;;;;;;;;;;;;;;;;5103101;28;19924;-84
2024/03/03 02:26:34;;;;;;;;;;;;;;;;;;5104180;28;19962;-84
2024/03/03 02:29:01;;;;;;;;;;;;;;;;;;5110322;28;19959;-84
2024/03/03 02:31:28;;;;;;;;;;;;;;;;;;5113532;28;20052;-85
2024/03/03 02:33:55;;;;;;;;;;;;;;;;;;5112088;28;19980;-83
2024/03/03 02:36:22;;;;;;;;;;;;;;;;;;5110584;28;19963;-84
2024/03/03 02:38:49;;;;;;;;;;;;;;;;;;5113655;28;20451;-84
2024/03/03 02:41:16;;;;;;;;;;;;;;;;;;5104450;28;19932;-85
2024/03/03 02:43:43;;;;;;;;;;;;;;;;;;5110926;28;20038;-85
2024/03/03 02:46:10;;;;;;;;;;;;;;;;;;5104364;28;20018;-83
2024/03/03 02:48:37;;;;;;;;;;;;;;;;;;5111038;28;20333;-82
2024/03/03 02:51:04;;;;;;;;;;;;;;;;;;5102508;28;20011;-83
2024/03/03 02:53:31;;;;;;;;;;;;;;;;;;5107253;28;20390;-83
2024/03/03 02:55:58;;;;;;;;;;;;;;;;;;5112634;28;19939;-83
2024/03/03 02:58:27;;;;;;;;;;;;;;;;;;5105114;28;20301;-83
2024/03/03 03:00:54;;;;;;;;;;;;;;;;;;5110008;28;20014;-82
2024/03/03 03:03:21;;;;;;;;;;;;;;;;;;5102529;27;20029;-81
2024/03/03 03:05:48;;;;;;;;;;;;;;;;;;5110323;28;20745;-82
2024/03/03 03:08:15;;;;;;;;;;;;;;;;;;5103819;28;19970;-82
2024/03/03 03:10:42;;;;;;;;;;;;;;;;;;5108505;28;20496;-82
2024/03/03 03:13:09;;;;;;;;;;;;;;;;;;5101465;28;20011;-82
2024/03/03 03:15:36;;;;;;;;;;;;;;;;;;5109176;28;20664;-81
2024/03/03 03:18:04;;;;;;;;;;;;;;;;;;5104702;28;20760;-81
2024/03/03 03:20:31;;;;;;;;;;;;;;;;;;5105165;28;19927;-81
2024/03/03 03:22:58;;;;;;;;;;;;;;;;;;5100499;28;20184;-81
2024/03/03 03:25:25;;;;;;;;;;;;;;;;;;5105804;28;20389;-81
2024/03/03 03:27:52;;;;;;;;;;;;;;;;;;5109328;28;19981;-81
2024/03/03 03:30:19;;;;;;;;;;;;;;;;;;5104995;27;19977;-82
2024/03/03 03:32:46;;;;;;;;;;;;;;;;;;5101279;28;20410;-82
2024/03/03 03:35:13;;;;;;;;;;;;;;;;;;5100977;28;20022;-82
2024/03/03 03:37:40;;;;;;;;;;;;;;;;;;5101793;28;20018;-82
2024/03/03 03:40:09;;;;;;;;;;;;;;;;;;5104210;28;19924;-83
2024/03/03 03:42:36;;;;;;;;;;;;;;;;;;5111271;28;20020;-83
2024/03/03 03:45:05;;;;;;;;;;;;;;;;;;5107692;28;19932;-82
2024/03/03 03:47:32;;;;;;;;;;;;;;;;;;5106089;28;19927;-84
2024/03/03 03:49:59;;;;;;;;;;;;;;;;;;5099241;28;20279;-84
2024/03/03 03:52:26;;;;;;;;;;;;;;;;;;5113722;28;19971;-85
2024/03/03 03:54:53;;;;;;;;;;;;;;;;;;5099958;28;20353;-83
2024/03/03 03:57:20;;;;;;;;;;;;;;;;;;5111970;28;19927;-84
2024/03/03 03:59:47;;;;;;;;;;;;;;;;;;5103160;28;19924;-84
2024/03/03 04:02:14;;;;;;;;;;;;;;;;;;5110270;28;19959;-85
2024/03/03 04:04:41;;;;;;;;;;;;;;;;;;5109093;28;19924;-85
2024/03/03 04:07:09;;;;;;;;;;;;;;;;;;5103107;28;21983;-84
2024/03/03 04:09:37;;;;;;;;;;;;;;;;;;5111652;28;20048;-84
2024/03/03 04:12:04;;;;;;;;;;;;;;;;;;5093052;28;19931;-83
2024/03/03 04:14:32;;;;;;;;;;;;;;;;;;5095979;28;20353;-83
2024/03/03 04:16:59;;;;;;;;;;;;;;;;;;5104771;28;19957;-78
2024/03/03 04:19:25;;;;;;;;;;;;;;;;;;5098472;28;19989;-81
2024/03/03 04:21:52;;;;;;;;;;;;;;;;;;5103770;28;20015;-83
2024/03/03 04:24:19;;;;;;;;;;;;;;;;;;5097491;28;19934;-83
2024/03/03 04:26:46;;;;;;;;;;;;;;;;;;5108869;28;19997;-84
2024/03/03 04:29:14;;;;;;;;;;;;;;;;;;5107898;28;19975;-84
2024/03/03 04:31:41;;;;;;;;;;;;;;;;;;5111637;28;19924;-85
2024/03/03 04:34:08;;;;;;;;;;;;;;;;;;5108975;28;19928;-85
2024/03/03 04:36:35;;;;;;;;;;;;;;;;;;5113034;28;19927;-85
2024/03/03 04:39:03;;;;;;;;;;;;;;;;;;5109352;28;20019;-83
2024/03/03 04:41:30;;;;;;;;;;;;;;;;;;5112272;28;19981;-85
2024/03/03 04:43:57;;;;;;;;;;;;;;;;;;5108996;28;19974;-85
2024/03/03 04:46:24;;;;;;;;;;;;;;;;;;5103783;28;20362;-84
2024/03/03 04:48:51;;;;;;;;;;;;;;;;;;5103620;28;19989;-85
2024/03/03 04:51:18;;;;;;;;;;;;;;;;;;5110594;28;20461;-85
2024/03/03 04:53:45;;;;;;;;;;;;;;;;;;5115044;28;19974;-85
2024/03/03 04:56:12;;;;;;;;;;;;;;;;;;5115386;28;20337;-85
2024/03/03 04:58:39;;;;;;;;;;;;;;;;;;5114467;28;20011;-86
2024/03/03 05:01:06;;;;;;;;;;;;;;;;;;5114925;28;19928;-85
2024/03/03 05:03:33;;;;;;;;;;;;;;;;;;5115811;28;20248;-86
2024/03/03 05:06:00;;;;;;;;;;;;;;;;;;5109500;28;19930;-86
2024/03/03 05:08:27;;;;;;;;;;;;;;;;;;5107253;28;20443;-87
2024/03/03 05:10:54;;;;;;;;;;;;;;;;;;5118903;28;19932;-86
2024/03/03 05:13:21;;;;;;;;;;;;;;;;;;5108399;28;20358;-86
2024/03/03 05:15:47;;;;;;;;;;;;;;;;;;5114459;28;20015;-86
2024/03/03 05:18:14;;;;;;;;;;;;;;;;;;5111390;28;19966;-86
2024/03/03 05:20:41;;;;;;;;;;;;;;;;;;5106994;28;20018;-86
2024/03/03 05:23:08;;;;;;;;;;;;;;;;;;5095616;28;19977;-86
2024/03/03 05:25:35;;;;;;;;;;;;;;;;;;5103756;28;20022;-85
2024/03/03 05:28:03;;;;;;;;;;;;;;;;;;5114099;28;20387;-87
2024/03/03 05:30:36;;;;;;;;;;;;;;;;;;5102270;28;19935;-86
2024/03/03 05:33:03;;;;;;;;;;;;;;;;;;5098097;28;19928;-87
2024/03/03 05:35:30;;;;;;;;;;;;;;;;;;5106015;28;19953;-87
2024/03/03 05:37:57;;;;;;;;;;;;;;;;;;5101372;28;20000;-86
2024/03/03 05:40:24;;;;;;;;;;;;;;;;;;5114753;28;19928;-86
2024/03/03 05:42:51;;;;;;;;;;;;;;;;;;5103454;28;19935;-87
2024/03/03 05:45:18;;;;;;;;;;;;;;;;;;5114476;28;19988;-87
2024/03/03 05:47:45;;;;;;;;;;;;;;;;;;5116602;28;19935;-87
2024/03/03 05:50:12;;;;;;;;;;;;;;;;;;5107553;28;19998;-87
2024/03/03 05:52:39;;;;;;;;;;;;;;;;;;5106423;28;20014;-86
2024/03/03 05:55:07;;;;;;;;;;;;;;;;;;5105045;28;19928;-87
2024/03/03 05:57:34;;;;;;;;;;;;;;;;;;5107098;28;19924;-87
2024/03/03 06:00:01;;;;;;;;;;;;;;;;;;5115552;28;19963;-86
2024/03/03 06:02:28;;;;;;;;;;;;;;;;;;5111101;28;20276;-87
2024/03/03 06:04:56;;;;;;;;;;;;;;;;;;5105286;28;20390;-85
2024/03/03 06:07:24;;;;;;;;;;;;;;;;;;5108131;28;20042;-86
2024/03/03 06:09:51;;;;;;;;;;;;;;;;;;5110080;28;20018;-83
2024/03/03 06:12:18;;;;;;;;;;;;;;;;;;5113204;28;20006;-84
2024/03/03 06:14:47;;;;;;;;;;;;;;;;;;5114945;28;20006;-85
2024/03/03 06:17:14;;;;;;;;;;;;;;;;;;5115886;28;19963;-85
2024/03/03 06:19:41;;;;;;;;;;;;;;;;;;5113736;28;19975;-86
2024/03/03 06:22:08;;;;;;;;;;;;;;;;;;5115398;28;19975;-85
2024/03/03 06:24:35;;;;;;;;;;;;;;;;;;5111440;28;20400;-86
2024/03/03 06:27:02;;;;;;;;;;;;;;;;;;5109587;28;20010;-85
2024/03/03 06:29:29;;;;;;;;;;;;;;;;;;5112762;28;19967;-86
2024/03/03 06:31:56;;;;;;;;;;;;;;;;;;5114083;28;19927;-87
2024/03/03 06:34:23;;;;;;;;;;;;;;;;;;5106092;28;20018;-87
2024/03/03 06:36:51;;;;;;;;;;;;;;;;;;5108620;28;19924;-87
2024/03/03 06:39:18;;;;;;;;;;;;;;;;;;5106401;28;19930;-87
2024/03/03 06:41:45;;;;;;;;;;;;;;;;;;5115892;28;19927;-86
2024/03/03 06:44:16;;;;;;;;;;;;;;;;;;5109608;28;19927;-86
2024/03/03 06:46:44;;;;;;;;;;;;;;;;;;5103475;28;20009;-85
2024/03/03 06:49:11;;;;;;;;;;;;;;;;;;5113841;28;20026;-81
2024/03/03 06:51:38;;;;;;;;;;;;;;;;;;5111166;28;19975;-85
2024/03/03 06:54:06;;;;;;;;;;;;;;;;;;5099202;28;19999;-83
2024/03/03 06:56:33;;;;;;;;;;;;;;;;;;5108494;28;19934;-86
2024/03/03 06:59:01;;;;;;;;;;;;;;;;;;5102484;28;20446;-86
2024/03/03 07:01:30;;;;;;;;;;;;;;;;;;5106229;28;19927;-86
2024/03/03 07:04:18;;;;;;;;;;;;;;;;;;5102128;28;19928;-86
2024/03/03 07:06:46;;;;;;;;;;;;;;;;;;5113201;28;19928;-86
2024/03/03 07:09:13;;;;;;;;;;;;;;;;;;5101082;28;19924;-85
2024/03/03 07:11:40;;;;;;;;;;;;;;;;;;5103961;28;19932;-85
2024/03/03 07:14:07;;;;;;;;;;;;;;;;;;5105326;28;19967;-85
2024/03/03 07:16:34;;;;;;;;;;;;;;;;;;5103496;28;19970;-84
2024/03/03 07:19:01;;;;;;;;;;;;;;;;;;5096141;28;20035;-83
2024/03/03 07:21:28;;;;;;;;;;;;;;;;;;5099778;28;20011;-84
2024/03/03 07:23:56;;;;;;;;;;;;;;;;;;5106632;28;20022;-84
2024/03/03 07:26:23;;;;;;;;;;;;;;;;;;5097316;28;19967;-83
2024/03/03 07:28:50;;;;;;;;;;;;;;;;;;5107786;28;19931;-83
2024/03/03 07:31:17;;;;;;;;;;;;;;;;;;5108686;28;19934;-83
2024/03/03 07:33:44;;;;;;;;;;;;;;;;;;5101062;28;19927;-81
2024/03/03 07:36:11;;;;;;;;;;;;;;;;;;5104524;28;20030;-81
2024/03/03 07:38:38;;;;;;;;;;;;;;;;;;5110282;28;20125;-82
2024/03/03 07:41:06;;;;;;;;;;;;;;;;;;5110805;28;20280;-81
2024/03/03 07:43:33;;;;;;;;;;;;;;;;;;5108895;28;19928;-82
2024/03/03 07:46:00;;;;;;;;;;;;;;;;;;5109206;28;19924;-82
2024/03/03 07:48:27;;;;;;;;;;;;;;;;;;5092584;28;20733;-84
2024/03/03 07:50:54;;;;;;;;;;;;;;;;;;5108603;28;19934;-83
2024/03/03 07:53:21;;;;;;;;;;;;;;;;;;5109482;28;19927;-84
2024/03/03 07:55:48;;;;;;;;;;;;;;;;;;5111183;28;20439;-83
2024/03/03 07:58:16;;;;;;;;;;;;;;;;;;5101249;28;19932;-85
2024/03/03 08:00:44;;;;;;;;;;;;;;;;;;5099419;28;19928;-85
2024/03/03 08:03:11;;;;;;;;;;;;;;;;;;5113924;28;19928;-85
2024/03/03 08:05:38;;;;;;;;;;;;;;;;;;5100913;28;19935;-77
2024/03/03 08:08:05;;;;;;;;;;;;;;;;;;5101461;28;20570;-77
2024/03/03 08:10:32;;;;;;;;;;;;;;;;;;5101474;28;19935;-76
2024/03/03 08:12:59;;;;;;;;;;;;;;;;;;5101535;28;19928;-76
2024/03/03 08:15:27;;;;;;;;;;;;;;;;;;5090880;28;20058;-76
2024/03/03 08:17:54;;;;;;;;;;;;;;;;;;5105738;28;19973;-76
2024/03/03 08:20:21;;;;;;;;;;;;;;;;;;5105191;28;19928;-75
2024/03/03 08:22:48;;;;;;;;;;;;;;;;;;5107212;28;20011;-77
2024/03/03 08:25:15;;;;;;;;;;;;;;;;;;5103579;28;19967;-78
2024/03/03 08:27:42;;;;;;;;;;;;;;;;;;5091277;28;19931;-78
2024/03/03 08:30:11;;;;;;;;;;;;;;;;;;5091023;28;20019;-78
2024/03/03 08:32:38;;;;;;;;;;;;;;;;;;5094877;28;20436;-78
2024/03/03 08:35:06;;;;;;;;;;;;;;;;;;5104759;28;19934;-77
2024/03/03 08:37:33;;;;;;;;;;;;;;;;;;5106747;28;19940;-78
2024/03/03 08:40:00;;;;;;;;;;;;;;;;;;5100654;28;19939;-76
2024/03/03 08:42:27;;;;;;;;;;;;;;;;;;5103917;28;19927;-76
2024/03/03 08:44:54;;;;;;;;;;;;;;;;;;5103193;28;19924;-76
2024/03/03 08:47:21;;;;;;;;;;;;;;;;;;5103656;28;19967;-76
2024/03/03 08:49:48;;;;;;;;;;;;;;;;;;5103636;28;19971;-76
2024/03/03 08:52:15;;;;;;;;;;;;;;;;;;5108590;28;19928;-76
2024/03/03 08:54:42;;;;;;;;;;;;;;;;;;5111204;28;20388;-76
2024/03/03 08:57:09;;;;;;;;;;;;;;;;;;5106317;28;19967;-76
2024/03/03 08:59:36;;;;;;;;;;;;;;;;;;5096991;28;20410;-76
2024/03/03 09:02:03;;;;;;;;;;;;;;;;;;5099879;28;20005;-76
2024/03/03 09:04:37;;;;;;;;;;;;;;;;;;5105827;28;20348;-75
2024/03/03 09:07:04;;;;;;;;;;;;;;;;;;5109385;28;20709;-76
2024/03/03 09:09:31;;;;;;;;;;;;;;;;;;5099959;28;19928;-78
2024/03/03 09:11:58;;;;;;;;;;;;;;;;;;5107849;28;20390;-76
2024/03/03 09:14:25;;;;;;;;;;;;;;;;;;5107325;28;20018;-74
2024/03/03 09:16:52;;;;;;;;;;;;;;;;;;5109223;28;20429;-75
2024/03/03 09:19:19;;;;;;;;;;;;;;;;;;5101793;28;20023;-76
2024/03/03 09:21:46;;;;;;;;;;;;;;;;;;5110853;28;20014;-76
2024/03/03 09:24:13;;;;;;;;;;;;;;;;;;5103768;28;20290;-76
2024/03/03 09:26:40;;;;;;;;;;;;;;;;;;5107722;28;19935;-77
2024/03/03 09:29:07;;;;;;;;;;;;;;;;;;5106073;28;19982;-77
2024/03/03 09:31:34;;;;;;;;;;;;;;;;;;5102257;28;20412;-77
2024/03/03 09:34:02;;;;;;;;;;;;;;;;;;5111515;28;19928;-78
2024/03/03 09:36:29;;;;;;;;;;;;;;;;;;5105966;28;19962;-76
2024/03/03 09:38:56;;;;;;;;;;;;;;;;;;5102586;28;20030;-76
2024/03/03 09:41:24;;;;;;;;;;;;;;;;;;5101965;28;20018;-79
2024/03/03 09:43:52;;;;;;;;;;;;;;;;;;5100402;28;20493;-76
2024/03/03 09:46:19;;;;;;;;;;;;;;;;;;5103712;28;19935;-76
2024/03/03 09:48:46;;;;;;;;;;;;;;;;;;5108592;28;19927;-79
2024/03/03 09:51:13;;;;;;;;;;;;;;;;;;5100030;28;19972;-79
2024/03/03 09:53:40;;;;;;;;;;;;;;;;;;5096517;28;19924;-79
2024/03/03 09:56:07;;;;;;;;;;;;;;;;;;5094386;28;20038;-79
2024/03/03 09:58:34;;;;;;;;;;;;;;;;;;5108666;28;19945;-78
2024/03/03 10:01:02;;;;;;;;;;;;;;;;;;5106865;28;20010;-75
2024/03/03 10:03:29;;;;;;;;;;;;;;;;;;5098699;28;19934;-78
2024/03/03 10:05:56;;;;;;;;;;;;;;;;;;5101196;28;20027;-79
2024/03/03 10:08:23;;;;;;;;;;;;;;;;;;5101166;28;20387;-79
2024/03/03 10:10:50;;;;;;;;;;;;;;;;;;5105219;28;20378;-79
2024/03/03 10:13:18;;;;;;;;;;;;;;;;;;5109275;28;19961;-78
2024/03/03 10:15:46;;;;;;;;;;;;;;;;;;5103021;28;19935;-77
2024/03/03 10:18:13;;;;;;;;;;;;;;;;;;5100927;28;19945;-78
2024/03/03 10:20:41;;;;;;;;;;;;;;;;;;5096752;28;20011;-79
2024/03/03 10:23:08;;;;;;;;;;;;;;;;;;5091469;28;19939;-77
2024/03/03 10:25:35;;;;;;;;;;;;;;;;;;5107622;28;19957;-76
2024/03/03 10:28:02;;;;;;;;;;;;;;;;;;5107878;28;20022;-77
2024/03/03 10:30:29;;;;;;;;;;;;;;;;;;5100510;28;19931;-78
2024/03/03 10:32:56;;;;;;;;;;;;;;;;;;5103903;28;19927;-77
2024/03/03 10:35:23;;;;;;;;;;;;;;;;;;5106937;28;19934;-77
2024/03/03 10:37:50;;;;;;;;;;;;;;;;;;5097839;28;20371;-75
2024/03/03 10:40:17;;;;;;;;;;;;;;;;;;5099798;28;20027;-78
2024/03/03 10:42:44;;;;;;;;;;;;;;;;;;5108327;28;19978;-76
2024/03/03 10:45:11;;;;;;;;;;;;;;;;;;5110864;28;20011;-77
2024/03/03 10:47:38;;;;;;;;;;;;;;;;;;5096834;28;19938;-77
2024/03/03 10:50:08;;;;;;;;;;;;;;;;;;5105528;28;19967;-77
2024/03/03 10:52:35;;;;;;;;;;;;;;;;;;5105079;28;19934;-77
2024/03/03 10:55:02;;;;;;;;;;;;;;;;;;5100372;28;20041;-77
2024/03/03 10:57:29;;;;;;;;;;;;;;;;;;5109180;28;20010;-77
2024/03/03 10:59:56;;;;;;;;;;;;;;;;;;5097136;27;20643;-78
2024/03/03 11:02:23;;;;;;;;;;;;;;;;;;5098883;28;19928;-79
2024/03/03 11:04:52;;;;;;;;;;;;;;;;;;5108375;28;20030;-79
2024/03/03 11:07:20;;;;;;;;;;;;;;;;;;5091191;28;19935;-77
2024/03/03 11:09:47;;;;;;;;;;;;;;;;;;5106438;28;20015;-80
2024/03/03 11:12:14;;;;;;;;;;;;;;;;;;5100299;28;20702;-78
2024/03/03 11:14:44;;;;;;;;;;;;;;;;;;5101836;28;20284;-80
2024/03/03 11:17:11;;;;;;;;;;;;;;;;;;5096148;28;19928;-78
2024/03/03 11:19:38;;;;;;;;;;;;;;;;;;5109931;28;20027;-80
2024/03/03 11:22:05;;;;;;;;;;;;;;;;;;5100796;28;19928;-80
2024/03/03 11:24:35;;;;;;;;;;;;;;;;;;5099591;28;19932;-79
2024/03/03 11:27:04;;;;;;;;;;;;;;;;;;5105596;28;20654;-79
2024/03/03 11:29:32;;;;;;;;;;;;;;;;;;5109849;28;19928;-78
2024/03/03 11:31:59;;;;;;;;;;;;;;;;;;5105831;28;20336;-78
2024/03/03 11:34:26;;;;;;;;;;;;;;;;;;5098990;28;20010;-79
2024/03/03 11:36:53;;;;;;;;;;;;;;;;;;5096180;28;19981;-78
2024/03/03 11:39:20;;;;;;;;;;;;;;;;;;5109429;28;19927;-79
2024/03/03 11:41:48;;;;;;;;;;;;;;;;;;5108475;28;19961;-78
2024/03/03 11:44:15;;;;;;;;;;;;;;;;;;5110204;28;19935;-79
2024/03/03 11:46:41;;;;;;;;;;;;;;;;;;5109294;28;19927;-78
2024/03/03 11:49:08;;;;;;;;;;;;;;;;;;5109918;28;20022;-77
2024/03/03 11:51:35;;;;;;;;;;;;;;;;;;5105459;28;20303;-77
2024/03/03 11:54:02;;;;;;;;;;;;;;;;;;5100911;28;20014;-79
2024/03/03 11:56:29;;;;;;;;;;;;;;;;;;5104866;28;19928;-78
2024/03/03 11:58:56;;;;;;;;;;;;;;;;;;5101401;28;20702;-77
2024/03/03 12:01:23;;;;;;;;;;;;;;;;;;5103875;28;19982;-76
2024/03/03 12:03:50;;;;;;;;;;;;;;;;;;5106894;28;20006;-77
2024/03/03 12:06:17;;;;;;;;;;;;;;;;;;5110334;28;19986;-78
2024/03/03 12:08:44;;;;;;;;;;;;;;;;;;5108794;28;20031;-78
2024/03/03 12:11:11;;;;;;;;;;;;;;;;;;5110044;28;20374;-78
2024/03/03 12:13:38;;;;;;;;;;;;;;;;;;5102831;28;19934;-77
2024/03/03 12:16:05;;;;;;;;;;;;;;;;;;5111392;28;19934;-77
2024/03/03 12:18:33;;;;;;;;;;;;;;;;;;5100660;28;20477;-78
2024/03/03 12:21:00;;;;;;;;;;;;;;;;;;5093928;28;19928;-77
2024/03/03 12:23:27;;;;;;;;;;;;;;;;;;5106951;28;19938;-76
2024/03/03 12:25:54;;;;;;;;;;;;;;;;;;5093707;28;20279;-79
2024/03/03 12:28:23;;;;;;;;;;;;;;;;;;5109314;28;19924;-79
2024/03/03 12:30:50;;;;;;;;;;;;;;;;;;5109390;28;19975;-78
2024/03/03 12:33:17;;;;;;;;;;;;;;;;;;5107994;28;20006;-78
2024/03/03 12:35:45;;;;;;;;;;;;;;;;;;5106249;28;20038;-79
2024/03/03 12:38:12;;;;;;;;;;;;;;;;;;5106762;28;19967;-79
2024/03/03 12:40:39;;;;;;;;;;;;;;;;;;5101403;28;20030;-79
2024/03/03 12:43:06;;;;;;;;;;;;;;;;;;5100809;28;19975;-79
2024/03/03 12:45:33;;;;;;;;;;;;;;;;;;5103716;28;19968;-78
2024/03/03 12:48:00;;;;;;;;;;;;;;;;;;5111657;28;19923;-77
2024/03/03 12:50:27;;;;;;;;;;;;;;;;;;5100500;28;20030;-79
2024/03/03 12:52:53;;;;;;;;;;;;;;;;;;5103312;28;20465;-79
2024/03/03 12:55:20;;;;;;;;;;;;;;;;;;5103737;28;20027;-79
2024/03/03 12:57:47;;;;;;;;;;;;;;;;;;5104837;28;20014;-79
2024/03/03 13:00:14;;;;;;;;;;;;;;;;;;5106127;28;19969;-79
2024/03/03 13:02:42;;;;;;;;;;;;;;;;;;5105905;28;19928;-79
2024/03/03 13:05:10;;;;;;;;;;;;;;;;;;5104408;28;19928;-76
2024/03/03 13:07:37;;;;;;;;;;;;;;;;;;5108660;28;20014;-79
2024/03/03 13:10:04;;;;;;;;;;;;;;;;;;5110174;28;19928;-80
2024/03/03 13:12:31;;;;;;;;;;;;;;;;;;5096012;28;19924;-80
2024/03/03 13:14:58;;;;;;;;;;;;;;;;;;5102384;28;20001;-77
2024/03/03 13:17:25;;;;;;;;;;;;;;;;;;5107283;28;20078;-77
2024/03/03 13:19:54;;;;;;;;;;;;;;;;;;5107019;28;20365;-77
2024/03/03 13:22:21;;;;;;;;;;;;;;;;;;5108172;28;19927;-77
2024/03/03 13:24:48;;;;;;;;;;;;;;;;;;5107704;28;19928;-79
2024/03/03 13:27:15;;;;;;;;;;;;;;;;;;5109080;28;20019;-78
2024/03/03 13:29:42;;;;;;;;;;;;;;;;;;5107623;28;20019;-78
2024/03/03 13:32:09;;;;;;;;;;;;;;;;;;5106457;28;19932;-78
2024/03/03 13:34:36;;;;;;;;;;;;;;;;;;5102942;28;19957;-78
2024/03/03 13:37:03;;;;;;;;;;;;;;;;;;5103480;27;19934;-73
2024/03/03 13:39:30;;;;;;;;;;;;;;;;;;5104654;27;19932;-72
2024/03/03 13:41:58;;;;;;;;;;;;;;;;;;5105876;28;19967;-72
2024/03/03 13:44:25;;;;;;;;;;;;;;;;;;5103783;28;19928;-72
2024/03/03 13:46:52;;;;;;;;;;;;;;;;;;5104368;28;19928;-73
2024/03/03 13:49:19;;;;;;;;;;;;;;;;;;5101854;28;19938;-73
2024/03/03 13:51:47;;;;;;;;;;;;;;;;;;5091657;28;19974;-74
2024/03/03 13:54:14;;;;;;;;;;;;;;;;;;5103912;28;19927;-73
2024/03/03 13:56:41;;;;;;;;;;;;;;;;;;5106086;28;19935;-74
2024/03/03 13:59:09;;;;;;;;;;;;;;;;;;5104632;28;19934;-72
2024/03/03 14:01:36;;;;;;;;;;;;;;;;;;5101272;28;19927;-73
2024/03/03 14:04:04;;;;;;;;;;;;;;;;;;5099254;28;20395;-74
2024/03/03 14:06:31;;;;;;;;;;;;;;;;;;5106475;28;19931;-72
2024/03/03 14:08:58;;;;;;;;;;;;;;;;;;5100788;28;20379;-73
2024/03/03 14:11:25;;;;;;;;;;;;;;;;;;5104695;28;19977;-73
2024/03/03 14:13:54;;;;;;;;;;;;;;;;;;5101047;28;20302;-73
2024/03/03 14:16:21;;;;;;;;;;;;;;;;;;5100074;28;19928;-73
2024/03/03 14:18:48;;;;;;;;;;;;;;;;;;5098667;28;19928;-72
2024/03/03 14:21:17;;;;;;;;;;;;;;;;;;5094437;28;20390;-71
2024/03/03 14:23:44;;;;;;;;;;;;;;;;;;5096737;28;19932;-73
2024/03/03 14:26:11;;;;;;;;;;;;;;;;;;5093837;28;19938;-76
2024/03/03 14:28:38;;;;;;;;;;;;;;;;;;5094393;28;19928;-74
2024/03/03 14:31:05;;;;;;;;;;;;;;;;;;5096712;28;20018;-75
2024/03/03 14:33:33;;;;;;;;;;;;;;;;;;5098004;28;20993;-73
2024/03/03 14:36:00;;;;;;;;;;;;;;;;;;5095831;28;20740;-73
2024/03/03 14:38:27;;;;;;;;;;;;;;;;;;5095214;28;20014;-73
2024/03/03 14:40:54;;;;;;;;;;;;;;;;;;5092179;28;19954;-74
2024/03/03 14:43:21;;;;;;;;;;;;;;;;;;5094345;28;20410;-73
2024/03/03 14:45:48;;;;;;;;;;;;;;;;;;5094860;28;21108;-74
2024/03/03 14:48:15;;;;;;;;;;;;;;;;;;5097509;28;20023;-74
2024/03/03 14:50:42;;;;;;;;;;;;;;;;;;5094203;28;20014;-73
2024/03/03 14:53:09;;;;;;;;;;;;;;;;;;5095498;28;19932;-73
2024/03/03 14:55:37;;;;;;;;;;;;;;;;;;5095411;28;19938;-74
2024/03/03 14:58:04;;;;;;;;;;;;;;;;;;5092767;28;20815;-73
2024/03/03 15:00:31;;;;;;;;;;;;;;;;;;5090959;28;19934;-73
2024/03/03 15:02:58;;;;;;;;;;;;;;;;;;5091286;28;19927;-73
2024/03/03 15:05:25;;;;;;;;;;;;;;;;;;5091796;28;19939;-73
2024/03/03 15:07:52;;;;;;;;;;;;;;;;;;5101895;28;19935;-73
2024/03/03 15:10:19;;;;;;;;;;;;;;;;;;5104970;28;19923;-73
2024/03/03 15:12:47;;;;;;;;;;;;;;;;;;5105276;28;19931;-74
2024/03/03 15:15:14;;;;;;;;;;;;;;;;;;5099805;28;20018;-73
2024/03/03 15:17:41;;;;;;;;;;;;;;;;;;5102095;28;20561;-73
2024/03/03 15:20:11;;;;;;;;;;;;;;;;;;5103159;27;19947;-73
2024/03/03 15:22:38;;;;;;;;;;;;;;;;;;5102548;28;19939;-74
2024/03/03 15:25:07;;;;;;;;;;;;;;;;;;5101166;28;19934;-74
2024/03/03 15:27:34;;;;;;;;;;;;;;;;;;5100917;28;19935;-73
2024/03/03 15:30:01;;;;;;;;;;;;;;;;;;5100272;28;19938;-73
2024/03/03 15:32:28;;;;;;;;;;;;;;;;;;5105528;28;19932;-73
2024/03/03 15:34:55;;;;;;;;;;;;;;;;;;5103435;28;20023;-74
2024/03/03 15:37:22;;;;;;;;;;;;;;;;;;5096648;28;20383;-74
2024/03/03 15:39:49;;;;;;;;;;;;;;;;;;5101630;28;20026;-74
2024/03/03 15:42:16;;;;;;;;;;;;;;;;;;5102310;28;20363;-73
2024/03/03 15:44:43;;;;;;;;;;;;;;;;;;5102031;28;20038;-76
2024/03/03 15:47:10;;;;;;;;;;;;;;;;;;5098126;28;20018;-75
2024/03/03 15:49:37;;;;;;;;;;;;;;;;;;5099477;28;19928;-76
2024/03/03 15:52:04;;;;;;;;;;;;;;;;;;5099429;28;20369;-77
2024/03/03 15:54:31;;;;;;;;;;;;;;;;;;5104551;28;20030;-81
2024/03/03 15:56:58;;;;;;;;;;;;;;;;;;5098011;28;20410;-76
2024/03/03 15:59:25;;;;;;;;;;;;;;;;;;5105141;28;20018;-78
2024/03/03 16:01:53;;;;;;;;;;;;;;;;;;5101828;28;19977;-74
2024/03/03 16:04:21;;;;;;;;;;;;;;;;;;5097535;28;20565;-81
2024/03/03 16:06:48;;;;;;;;;;;;;;;;;;5099313;28;19934;-83
2024/03/03 16:09:15;;;;;;;;;;;;;;;;;;5103030;28;19928;-85
2024/03/03 16:11:42;;;;;;;;;;;;;;;;;;5095066;28;19960;-80
2024/03/03 16:14:10;;;;;;;;;;;;;;;;;;5103002;28;20386;-82
2024/03/03 16:16:38;;;;;;;;;;;;;;;;;;5097437;28;19936;-82
2024/03/03 16:19:05;;;;;;;;;;;;;;;;;;5100479;28;19928;-84
2024/03/03 16:21:33;;;;;;;;;;;;;;;;;;5103486;28;20415;-81
2024/03/03 16:24:01;;;;;;;;;;;;;;;;;;5096592;28;20008;-83
2024/03/03 16:26:28;;;;;;;;;;;;;;;;;;5106405;28;19942;-82
2024/03/03 16:28:55;;;;;;;;;;;;;;;;;;5101708;28;20010;-81
2024/03/03 16:31:22;;;;;;;;;;;;;;;;;;5098752;28;19928;-83
2024/03/03 16:33:49;;;;;;;;;;;;;;;;;;5099007;28;19928;-82
2024/03/03 16:36:16;;;;;;;;;;;;;;;;;;5095931;28;20006;-81
2024/03/03 16:38:43;;;;;;;;;;;;;;;;;;5105955;28;19945;-78
2024/03/03 16:41:10;;;;;;;;;;;;;;;;;;5099031;28;20038;-81
2024/03/03 16:43:37;;;;;;;;;;;;;;;;;;5106884;28;20011;-76
2024/03/03 16:46:05;;;;;;;;;;;;;;;;;;5106181;28;19928;-80